Baltic Leader — 3EEX6 — position and weather

sailwx.info

Track history (hours):
 
Tides and Currents Weather Stations Pressure Air Temp Water Temp Dewpoint Dewpoint Depression Visibility Wind Speed Wind Dir Waves Ship Positions

Baltic Leader

Last reported at 2018-Feb-19 13:12 UTC. Time now 2018-Feb-22 01:27 UTC.
Position N 33°01' E 132°09'.

Length 190 m; draft 7.3 m.

Type: Cargo ship. MMSI: 355323000.

Date/timePositionNaut miles runAvg speedWind from/ knotsBaromVisibWave heightAir tempDewpointWater temp
2018-Feb-19 13:12N 33°01' E 132°09'1512.2
2018-Feb-19 11:59N 33°14' E 132°02'510.8
2018-Feb-19 11:30N 33°19' E 131°59'5 9.6
2018-Feb-19 11:00N 33°23' E 131°56'510.2
2018-Feb-19 10:30N 33°27' E 131°53'611.3
2018-Feb-19 10:00N 33°33' E 131°50'611.4
2018-Feb-19 09:30N 33°38' E 131°47'510.8
2018-Feb-19 09:00N 33°43' E 131°44'510.2
2018-Feb-19 08:30N 33°46' E 131°40'611.2
2018-Feb-19 08:00N 33°47' E 131°33'611.3
2018-Feb-19 07:31N 33°48' E 131°26'611.7
2018-Feb-19 07:00N 33°48' E 131°19'2 4.6
2018-Feb-19 06:30N 33°49' E 131°17'2 3.9
2018-Feb-19 06:01N 33°50' E 131°15'611.1
2018-Feb-19 05:31N 33°53' E 131°09'611.4
2018-Feb-19 05:01N 33°56' E 131°04'4 8.6
2018-Feb-19 04:30N 33°58' E 130°59'5 9.1
2018-Feb-19 04:01N 33°55' E 130°56'3 6.9
2018-Feb-19 03:30N 33°56' E 130°52'4 7.7
2018-Feb-19 03:01N 33°54' E 130°48'1 1.5
2018-Feb-19 02:26N 33°53' E 130°48'0 0.0
2018-Feb-19 01:56N 33°53' E 130°48'0 0.0
2018-Feb-19 01:26N 33°53' E 130°48'0 0.0
2018-Feb-19 00:59N 33°53' E 130°48'0 0.0
2018-Feb-19 00:29N 33°53' E 130°48'0 0.0
2018-Feb-18 23:59N 33°53' E 130°48'0 0.0
2018-Feb-18 23:23N 33°53' E 130°48'0 0.0
2018-Feb-18 22:59N 33°53' E 130°48'0 0.0
2018-Feb-18 22:20N 33°53' E 130°48'0 0.0
2018-Feb-18 21:56N 33°53' E 130°48'0 0.0
2018-Feb-18 21:26N 33°53' E 130°48'0 0.0
2018-Feb-18 20:56N 33°53' E 130°48'0 0.0
2018-Feb-18 20:26N 33°53' E 130°48'0 0.0
2018-Feb-18 19:56N 33°53' E 130°48'0 0.0
2018-Feb-18 19:29N 33°53' E 130°48'0 0.0
2018-Feb-18 18:56N 33°53' E 130°48'0 0.0
2018-Feb-18 18:26N 33°53' E 130°48'0 0.0
2018-Feb-18 17:59N 33°53' E 130°48'0 0.0
2018-Feb-18 17:26N 33°53' E 130°48'0 0.0
2018-Feb-18 16:59N 33°53' E 130°48'0 0.0
2018-Feb-18 16:26N 33°53' E 130°48'0 0.0
2018-Feb-18 15:59N 33°53' E 130°48'0 0.0
2018-Feb-18 15:26N 33°53' E 130°48'0 0.0
2018-Feb-18 14:56N 33°53' E 130°48'0 0.0
2018-Feb-18 14:29N 33°53' E 130°48'0 0.0
2018-Feb-18 13:56N 33°53' E 130°48'0 0.0
2018-Feb-18 13:29N 33°53' E 130°48'0 0.0
2018-Feb-18 12:56N 33°53' E 130°48'0 0.0
2018-Feb-18 12:26N 33°53' E 130°48'0 0.0
2018-Feb-18 11:56N 33°53' E 130°48'0 0.0
2018-Feb-18 11:29N 33°53' E 130°48'0 0.0
2018-Feb-18 10:59N 33°53' E 130°48'0 0.0
2018-Feb-18 10:26N 33°53' E 130°48'0 0.0
2018-Feb-18 09:59N 33°53' E 130°48'0 0.0
2018-Feb-18 09:26N 33°53' E 130°48'0 0.0
2018-Feb-18 08:56N 33°53' E 130°48'0 0.0
2018-Feb-18 08:26N 33°53' E 130°48'0 0.0
2018-Feb-18 07:53N 33°53' E 130°48'0 0.0
2018-Feb-18 07:26N 33°53' E 130°48'0 0.0
2018-Feb-18 06:53N 33°53' E 130°48'0 0.0
2018-Feb-18 06:29N 33°53' E 130°48'0 0.0
2018-Feb-18 05:59N 33°53' E 130°48'0 0.0
2018-Feb-18 05:26N 33°53' E 130°48'0 0.0
2018-Feb-18 04:56N 33°53' E 130°48'0 0.0
2018-Feb-18 04:29N 33°53' E 130°48'0 0.0
2018-Feb-18 03:56N 33°53' E 130°48'0 0.0
2018-Feb-18 03:29N 33°53' E 130°48'0 0.0
2018-Feb-18 02:56N 33°53' E 130°48'0 0.0
2018-Feb-18 02:29N 33°53' E 130°48'0 0.0
2018-Feb-18 01:59N 33°53' E 130°48'0 0.0
2018-Feb-18 01:29N 33°53' E 130°48'0 0.0
2018-Feb-18 00:50N 33°53' E 130°48'0 0.0
2018-Feb-18 00:29N 33°53' E 130°48'0 0.0
2018-Feb-17 23:56N 33°53' E 130°48'0 0.0
2018-Feb-17 23:26N 33°53' E 130°48'0 0.0
2018-Feb-17 22:59N 33°53' E 130°48'0 0.0
2018-Feb-17 22:26N 33°53' E 130°48'0 0.0
2018-Feb-17 21:59N 33°53' E 130°48'0 0.0
2018-Feb-17 21:26N 33°53' E 130°48'0 0.0
2018-Feb-17 20:59N 33°53' E 130°48'0 0.0
2018-Feb-17 20:26N 33°53' E 130°48'0 0.0
2018-Feb-17 19:59N 33°53' E 130°48'0 0.0
2018-Feb-17 19:26N 33°53' E 130°48'0 0.0
2018-Feb-17 18:53N 33°53' E 130°48'0 0.0
2018-Feb-17 18:29N 33°53' E 130°48'0 0.0
2018-Feb-17 17:56N 33°53' E 130°48'0 0.0
2018-Feb-17 17:26N 33°53' E 130°48'0 0.0
2018-Feb-17 16:59N 33°53' E 130°48'0 0.0
2018-Feb-17 16:26N 33°53' E 130°48'0 0.0
2018-Feb-17 15:53N 33°53' E 130°48'0 0.0
2018-Feb-17 15:29N 33°53' E 130°48'0 0.0
2018-Feb-17 14:56N 33°53' E 130°48'0 0.0
2018-Feb-17 14:29N 33°53' E 130°48'0 0.0
2018-Feb-17 13:59N 33°53' E 130°48'0 0.0
2018-Feb-17 13:26N 33°53' E 130°48'0 0.0
2018-Feb-17 12:56N 33°53' E 130°48'0 0.0
2018-Feb-17 12:26N 33°53' E 130°48'0 0.0
2018-Feb-17 11:50N 33°53' E 130°48'0 0.0
2018-Feb-17 11:20N 33°53' E 130°48'0 0.0
2018-Feb-17 10:59N 33°53' E 130°48'0 0.0
2018-Feb-17 10:26N 33°53' E 130°48'0 0.0
2018-Feb-17 09:59N 33°53' E 130°48'0 0.0
2018-Feb-17 09:29N 33°53' E 130°48'0 0.0
2018-Feb-17 08:59N 33°53' E 130°48'0 0.0
2018-Feb-17 08:26N 33°53' E 130°48'0 0.0
2018-Feb-17 07:53N 33°53' E 130°48'0 0.0
2018-Feb-17 07:29N 33°53' E 130°48'0 0.0
2018-Feb-17 06:59N 33°53' E 130°48'0 0.0
2018-Feb-17 06:26N 33°53' E 130°48'0 0.0
2018-Feb-17 05:59N 33°53' E 130°48'0 0.0
2018-Feb-17 05:29N 33°53' E 130°48'0 0.0
2018-Feb-17 04:50N 33°53' E 130°48'0 0.0
2018-Feb-17 04:29N 33°53' E 130°48'0 0.0
2018-Feb-17 03:59N 33°53' E 130°48'0 0.0
2018-Feb-17 03:26N 33°53' E 130°48'0 0.0
2018-Feb-17 02:56N 33°53' E 130°48'0 0.0
2018-Feb-17 02:26N 33°53' E 130°48'0 0.0
2018-Feb-17 01:59N 33°53' E 130°48'0 0.0
2018-Feb-17 01:26N 33°53' E 130°48'0 0.0
2018-Feb-17 00:59N 33°53' E 130°48'0 0.0
2018-Feb-17 00:20N 33°53' E 130°48'0 0.0
2018-Feb-16 23:56N 33°53' E 130°48'0 0.0
2018-Feb-16 23:26N 33°53' E 130°48'0 0.0
2018-Feb-16 22:59N 33°53' E 130°48'0 0.0
2018-Feb-16 22:29N 33°53' E 130°48'0 0.0
2018-Feb-16 21:59N 33°53' E 130°48'0 0.0
2018-Feb-16 21:20N 33°53' E 130°48'0 0.0
2018-Feb-16 20:59N 33°53' E 130°48'0 0.0
2018-Feb-16 20:26N 33°53' E 130°48'0 0.0
2018-Feb-16 19:56N 33°53' E 130°48'0 0.0
2018-Feb-16 19:20N 33°53' E 130°48'0 0.0
2018-Feb-16 18:53N 33°53' E 130°48'0 0.0
2018-Feb-16 18:29N 33°53' E 130°48'0 0.0
2018-Feb-16 17:59N 33°53' E 130°48'0 0.0
2018-Feb-16 17:29N 33°53' E 130°48'0 0.0
2018-Feb-16 16:59N 33°53' E 130°48'0 0.0
2018-Feb-16 16:20N 33°53' E 130°48'0 0.0
2018-Feb-16 15:56N 33°53' E 130°48'0 0.0
2018-Feb-16 15:26N 33°53' E 130°48'0 0.0
2018-Feb-16 14:59N 33°53' E 130°48'0 0.0
2018-Feb-16 14:29N 33°53' E 130°48'0 0.0
2018-Feb-16 13:59N 33°53' E 130°48'0 0.0
2018-Feb-16 13:26N 33°53' E 130°48'0 0.0
2018-Feb-16 12:56N 33°53' E 130°48'0 0.0
2018-Feb-16 12:26N 33°53' E 130°48'0 0.0
2018-Feb-16 11:56N 33°53' E 130°48'0 0.0
2018-Feb-16 11:26N 33°53' E 130°48'0 0.0
2018-Feb-16 10:59N 33°53' E 130°48'0 0.0
2018-Feb-16 10:23N 33°53' E 130°48'0 0.0
2018-Feb-16 09:56N 33°53' E 130°48'0 0.0
2018-Feb-16 09:29N 33°53' E 130°48'0 0.0
2018-Feb-16 08:56N 33°53' E 130°48'0 0.0
2018-Feb-16 08:26N 33°53' E 130°48'0 0.0
2018-Feb-16 07:59N 33°53' E 130°48'0 0.0
2018-Feb-16 07:26N 33°53' E 130°48'0 0.0
2018-Feb-16 06:56N 33°53' E 130°48'0 0.0
2018-Feb-16 06:26N 33°53' E 130°48'0 0.0
2018-Feb-16 05:44N 33°53' E 130°48'0 0.0
2018-Feb-16 05:26N 33°53' E 130°48'0 0.0
2018-Feb-16 04:50N 33°53' E 130°48'0 0.0
2018-Feb-16 04:26N 33°53' E 130°48'0 0.0
2018-Feb-16 03:56N 33°53' E 130°48'0 0.0
2018-Feb-16 03:29N 33°53' E 130°48'0 0.0
2018-Feb-16 02:59N 33°53' E 130°48'0 0.0
2018-Feb-16 02:26N 33°53' E 130°48'0 0.0
2018-Feb-16 01:56N 33°53' E 130°48'0 0.0
2018-Feb-16 01:26N 33°53' E 130°48'0 0.0
2018-Feb-16 00:53N 33°53' E 130°48'0 0.0
2018-Feb-16 00:29N 33°53' E 130°48'0 0.0
2018-Feb-15 23:59N 33°53' E 130°48'0 0.0
2018-Feb-15 23:26N 33°53' E 130°48'0 0.0
2018-Feb-15 22:56N 33°53' E 130°48'0 0.0
2018-Feb-15 22:26N 33°53' E 130°48'0 0.0
2018-Feb-15 21:56N 33°53' E 130°48'0 0.0
2018-Feb-15 21:26N 33°53' E 130°48'0 0.0
2018-Feb-15 20:53N 33°53' E 130°48'0 0.0
2018-Feb-15 20:26N 33°53' E 130°48'0 0.0
2018-Feb-15 19:56N 33°53' E 130°48'0 0.0
2018-Feb-15 19:26N 33°53' E 130°48'0 0.0
2018-Feb-15 18:53N 33°53' E 130°48'0 0.0
2018-Feb-15 18:26N 33°53' E 130°48'0 0.0
2018-Feb-15 17:56N 33°53' E 130°48'0 0.0
2018-Feb-15 17:26N 33°53' E 130°48'0 0.0
2018-Feb-15 16:56N 33°53' E 130°48'0 0.0
2018-Feb-15 16:29N 33°53' E 130°48'0 0.0
2018-Feb-15 15:59N 33°53' E 130°48'0 0.0
2018-Feb-15 15:29N 33°53' E 130°48'0 0.0
2018-Feb-15 14:59N 33°53' E 130°48'0 0.0
2018-Feb-15 14:26N 33°53' E 130°48'0 0.0
2018-Feb-15 13:59N 33°53' E 130°48'0 0.0
2018-Feb-15 13:29N 33°53' E 130°48'0 0.0
2018-Feb-15 12:56N 33°53' E 130°48'0 0.0
2018-Feb-15 12:23N 33°53' E 130°48'0 0.0
2018-Feb-15 11:59N 33°53' E 130°48'0 0.0
2018-Feb-15 11:29N 33°53' E 130°48'0 0.0
2018-Feb-15 10:59N 33°53' E 130°48'0 0.0
2018-Feb-15 10:29N 33°53' E 130°48'0 0.0
2018-Feb-15 09:59N 33°53' E 130°48'0 0.0
2018-Feb-15 09:26N 33°53' E 130°48'0 0.0
2018-Feb-15 08:56N 33°53' E 130°48'0 0.0
2018-Feb-15 08:26N 33°53' E 130°48'0 0.0
2018-Feb-15 07:59N 33°53' E 130°48'0 0.0
2018-Feb-15 07:23N 33°53' E 130°48'0 0.0
2018-Feb-15 06:56N 33°53' E 130°48'0 0.0
2018-Feb-15 06:23N 33°53' E 130°48'0 0.0
2018-Feb-15 05:56N 33°53' E 130°48'0 0.0
2018-Feb-15 05:26N 33°53' E 130°48'0 0.0
2018-Feb-15 04:53N 33°53' E 130°48'0 0.0
2018-Feb-15 04:26N 33°53' E 130°48'0 0.0
2018-Feb-15 03:56N 33°53' E 130°48'0 0.0
2018-Feb-15 03:23N 33°53' E 130°48'0 0.0
2018-Feb-15 02:59N 33°53' E 130°48'0 0.0
2018-Feb-15 02:14N 33°53' E 130°48'0 0.0
2018-Feb-15 01:59N 33°53' E 130°48'0 0.0
2018-Feb-15 01:26N 33°53' E 130°48'0 0.0
2018-Feb-15 00:59N 33°53' E 130°48'0 0.0
2018-Feb-15 00:26N 33°53' E 130°48'0 0.0
2018-Feb-14 23:56N 33°53' E 130°48'0 0.0
2018-Feb-14 23:26N 33°53' E 130°48'0 0.0
2018-Feb-14 22:59N 33°53' E 130°48'0 0.0
2018-Feb-14 22:29N 33°53' E 130°48'0 0.0
2018-Feb-14 21:56N 33°53' E 130°48'0 0.0
2018-Feb-14 21:26N 33°53' E 130°48'0 0.0
2018-Feb-14 20:53N 33°53' E 130°48'0 0.0
2018-Feb-14 20:26N 33°53' E 130°48'0 0.0
2018-Feb-14 19:56N 33°53' E 130°48'0 0.0
2018-Feb-14 19:29N 33°53' E 130°48'0 0.0
2018-Feb-14 18:59N 33°53' E 130°48'0 0.0
2018-Feb-14 18:26N 33°53' E 130°48'0 0.0
2018-Feb-14 17:59N 33°53' E 130°48'0 0.0
2018-Feb-14 17:26N 33°53' E 130°48'0 0.0
2018-Feb-14 16:59N 33°53' E 130°48'0 0.0
2018-Feb-14 16:29N 33°53' E 130°48'0 0.0
2018-Feb-14 15:59N 33°53' E 130°48'0 0.0
2018-Feb-14 15:29N 33°53' E 130°48'0 0.0
2018-Feb-14 14:56N 33°53' E 130°48'0 0.0
2018-Feb-14 14:14N 33°53' E 130°48'0 0.0
2018-Feb-14 13:59N 33°53' E 130°48'0 0.0
2018-Feb-14 13:29N 33°53' E 130°48'0 0.0
2018-Feb-14 12:59N 33°53' E 130°48'0 0.0
2018-Feb-14 12:29N 33°53' E 130°48'0 0.0
2018-Feb-14 11:59N 33°53' E 130°48'0 0.0
2018-Feb-14 11:23N 33°53' E 130°48'0 0.0
2018-Feb-14 10:56N 33°53' E 130°48'0 0.0
2018-Feb-14 10:26N 33°53' E 130°48'0 0.0
2018-Feb-14 09:59N 33°53' E 130°48'0 0.0
2018-Feb-14 09:29N 33°53' E 130°48'0 0.0
2018-Feb-14 08:59N 33°53' E 130°48'0 0.0
2018-Feb-14 08:29N 33°53' E 130°48'0 0.0
2018-Feb-14 07:59N 33°53' E 130°48'0 0.0
2018-Feb-14 07:29N 33°53' E 130°48'0 0.0
2018-Feb-14 06:56N 33°53' E 130°48'0 0.0
2018-Feb-14 06:26N 33°53' E 130°48'0 0.0
2018-Feb-14 05:59N 33°53' E 130°48'0 0.0
2018-Feb-14 05:26N 33°53' E 130°48'0 0.0
2018-Feb-14 04:59N 33°53' E 130°48'0 0.0
2018-Feb-14 04:29N 33°53' E 130°48'0 0.0
2018-Feb-14 03:59N 33°53' E 130°48'0 0.0
2018-Feb-14 03:29N 33°53' E 130°48'0 0.0
2018-Feb-14 02:59N 33°53' E 130°48'0 0.0
2018-Feb-14 02:29N 33°53' E 130°48'0 0.0
2018-Feb-14 01:59N 33°53' E 130°48'0 0.0
2018-Feb-14 01:29N 33°53' E 130°48'0 0.0
2018-Feb-14 00:56N 33°53' E 130°48'0 0.0
2018-Feb-14 00:26N 33°53' E 130°48'0 0.0
2018-Feb-13 23:50N 33°53' E 130°48'0 0.0
2018-Feb-13 23:26N 33°53' E 130°48'0 0.0
2018-Feb-13 22:56N 33°53' E 130°48'0 0.0
2018-Feb-13 22:29N 33°53' E 130°48'0 0.0
2018-Feb-13 21:59N 33°53' E 130°48'0 0.0
2018-Feb-13 21:26N 33°53' E 130°48'0 0.0
2018-Feb-13 20:56N 33°53' E 130°48'0 0.0
2018-Feb-13 20:26N 33°53' E 130°48'0 0.0
2018-Feb-13 19:56N 33°53' E 130°48'0 0.0
2018-Feb-13 19:26N 33°53' E 130°48'0 0.0
2018-Feb-13 18:56N 33°53' E 130°48'0 0.0
2018-Feb-13 18:26N 33°53' E 130°48'0 0.0
2018-Feb-13 17:59N 33°53' E 130°48'0 0.0
2018-Feb-13 17:29N 33°53' E 130°48'0 0.0
2018-Feb-13 16:44N 33°53' E 130°48'0 0.0
2018-Feb-13 16:26N 33°53' E 130°48'0 0.0
2018-Feb-13 15:56N 33°53' E 130°48'0 0.0
2018-Feb-13 15:26N 33°53' E 130°48'0 0.0
2018-Feb-13 14:59N 33°53' E 130°48'0 0.0
2018-Feb-13 14:29N 33°53' E 130°48'0 0.0
2018-Feb-13 13:59N 33°53' E 130°48'0 0.0
2018-Feb-13 13:26N 33°53' E 130°48'0 0.0
2018-Feb-13 12:56N 33°53' E 130°48'0 0.0
2018-Feb-13 12:26N 33°53' E 130°48'0 0.0
2018-Feb-13 11:59N 33°53' E 130°48'0 0.0
2018-Feb-13 11:26N 33°53' E 130°48'0 0.0
2018-Feb-13 10:56N 33°53' E 130°48'0 0.0
2018-Feb-13 10:29N 33°53' E 130°48'0 0.0
2018-Feb-13 09:59N 33°53' E 130°48'0 0.0
2018-Feb-13 09:29N 33°53' E 130°48'0 0.0
2018-Feb-13 08:53N 33°53' E 130°48'0 0.0
2018-Feb-13 08:29N 33°53' E 130°48'0 0.0
2018-Feb-13 07:56N 33°53' E 130°48'0 0.0
2018-Feb-13 07:29N 33°53' E 130°48'0 0.0
2018-Feb-13 06:59N 33°53' E 130°48'0 0.0
2018-Feb-13 06:26N 33°53' E 130°48'0 0.0
2018-Feb-13 05:56N 33°53' E 130°48'0 0.0
2018-Feb-13 05:23N 33°53' E 130°48'0 0.0
2018-Feb-13 04:59N 33°53' E 130°48'0 0.0
2018-Feb-13 04:26N 33°53' E 130°48'0 0.0
2018-Feb-13 03:59N 33°53' E 130°48'0 0.0
2018-Feb-13 03:26N 33°53' E 130°48'0 0.0
2018-Feb-13 02:59N 33°53' E 130°48'0 0.0
2018-Feb-13 02:26N 33°53' E 130°48'0 0.0
2018-Feb-13 01:56N 33°53' E 130°48'0 0.0
2018-Feb-13 01:20N 33°53' E 130°48'0 0.0
2018-Feb-13 00:59N 33°53' E 130°48'0 0.0
2018-Feb-13 00:26N 33°53' E 130°48'0 0.0
2018-Feb-12 23:56N 33°53' E 130°48'0 0.0
2018-Feb-12 23:23N 33°53' E 130°48'0 0.0
2018-Feb-12 22:56N 33°53' E 130°48'0 0.0
2018-Feb-12 22:29N 33°53' E 130°48'0 0.0
2018-Feb-12 21:56N 33°53' E 130°48'0 0.0
2018-Feb-12 21:29N 33°53' E 130°48'0 0.0
2018-Feb-12 20:56N 33°53' E 130°48'0 0.0
2018-Feb-12 20:26N 33°53' E 130°48'0 0.0
2018-Feb-12 19:56N 33°53' E 130°48'0 0.0
2018-Feb-12 19:26N 33°53' E 130°48'0 0.0
2018-Feb-12 18:59N 33°53' E 130°48'0 0.0
2018-Feb-12 18:26N 33°53' E 130°48'0 0.0
2018-Feb-12 17:56N 33°53' E 130°48'0 0.0
2018-Feb-12 17:26N 33°53' E 130°48'0 0.0
2018-Feb-12 16:56N 33°53' E 130°48'0 0.0
2018-Feb-12 16:29N 33°53' E 130°48'0 0.0
2018-Feb-12 15:56N 33°53' E 130°48'0 0.0
2018-Feb-12 15:14N 33°53' E 130°48'0 0.0
2018-Feb-12 14:59N 33°53' E 130°48'0 0.0
2018-Feb-12 14:29N 33°53' E 130°48'0 0.0
2018-Feb-12 13:56N 33°53' E 130°48'0 0.0
2018-Feb-12 13:29N 33°53' E 130°48'0 0.0
2018-Feb-12 12:56N 33°53' E 130°48'0 0.0
2018-Feb-12 12:26N 33°53' E 130°48'0 0.0
2018-Feb-12 11:59N 33°53' E 130°48'0 0.0
2018-Feb-12 11:26N 33°53' E 130°48'0 0.0
2018-Feb-12 10:56N 33°53' E 130°48'0 0.0
2018-Feb-12 10:29N 33°53' E 130°48'0 0.0
2018-Feb-12 09:56N 33°53' E 130°48'0 0.0
2018-Feb-12 09:26N 33°53' E 130°48'0 0.0
2018-Feb-12 08:59N 33°53' E 130°48'0 0.0
2018-Feb-12 08:29N 33°53' E 130°48'0 0.0
2018-Feb-12 07:56N 33°53' E 130°48'0 0.0
2018-Feb-12 07:29N 33°53' E 130°48'0 0.0
2018-Feb-12 06:56N 33°53' E 130°48'0 0.0
2018-Feb-12 06:14N 33°53' E 130°48'0 0.0
2018-Feb-12 05:56N 33°53' E 130°48'0 0.0
2018-Feb-12 05:29N 33°53' E 130°48'0 0.0
2018-Feb-12 04:56N 33°53' E 130°48'0 0.0
2018-Feb-12 04:26N 33°53' E 130°48'0 0.0
2018-Feb-12 03:56N 33°53' E 130°48'0 0.0
2018-Feb-12 03:26N 33°53' E 130°48'0 0.0
2018-Feb-12 02:50N 33°53' E 130°48'0 0.0
2018-Feb-12 02:26N 33°53' E 130°48'0 0.0
2018-Feb-12 01:56N 33°53' E 130°48'0 0.0
2018-Feb-12 01:29N 33°53' E 130°48'0 0.0
2018-Feb-12 00:59N 33°53' E 130°48'0 0.0
2018-Feb-12 00:26N 33°53' E 130°48'0 0.0
2018-Feb-11 23:59N 33°53' E 130°48'0 0.0
2018-Feb-11 23:26N 33°53' E 130°48'0 0.0
2018-Feb-11 22:59N 33°53' E 130°48'0 0.0
2018-Feb-11 22:26N 33°53' E 130°48'0 0.0
2018-Feb-11 21:59N 33°53' E 130°48'0 0.0
2018-Feb-11 21:26N 33°53' E 130°48'0 0.0
2018-Feb-11 20:56N 33°53' E 130°48'0 0.0
2018-Feb-11 20:29N 33°53' E 130°48'0 0.0
2018-Feb-11 19:59N 33°53' E 130°48'0 0.0
2018-Feb-11 19:29N 33°53' E 130°48'0 0.0
2018-Feb-11 18:56N 33°53' E 130°48'0 0.0
2018-Feb-11 18:29N 33°53' E 130°48'0 0.0
2018-Feb-11 17:59N 33°53' E 130°48'0 0.0
2018-Feb-11 17:29N 33°53' E 130°48'0 0.0
2018-Feb-11 16:59N 33°53' E 130°48'0 0.0
2018-Feb-11 16:26N 33°53' E 130°48'0 0.0
2018-Feb-11 15:56N 33°53' E 130°48'0 0.0
2018-Feb-11 15:29N 33°53' E 130°48'0 0.0
2018-Feb-11 14:56N 33°53' E 130°48'0 0.0
2018-Feb-11 14:26N 33°53' E 130°48'0 0.0
2018-Feb-11 13:56N 33°53' E 130°48'0 0.0
2018-Feb-11 13:26N 33°53' E 130°48'0 0.0
2018-Feb-11 12:59N 33°53' E 130°48'0 0.0
2018-Feb-11 12:26N 33°53' E 130°48'0 0.0
2018-Feb-11 11:59N 33°53' E 130°48'0 0.0
2018-Feb-11 11:26N 33°53' E 130°48'0 0.0
2018-Feb-11 10:56N 33°53' E 130°48'0 0.0
2018-Feb-11 10:29N 33°53' E 130°48'0 0.0
2018-Feb-11 09:56N 33°53' E 130°48'0 0.0
2018-Feb-11 09:23N 33°53' E 130°48'0 0.0
2018-Feb-11 08:56N 33°53' E 130°48'0 0.0
2018-Feb-11 08:29N 33°53' E 130°48'0 0.0
2018-Feb-11 07:59N 33°53' E 130°48'0 0.0
2018-Feb-11 07:29N 33°53' E 130°48'0 0.0
2018-Feb-11 06:59N 33°53' E 130°48'0 0.0
2018-Feb-11 06:26N 33°53' E 130°48'0 0.0
2018-Feb-11 05:59N 33°53' E 130°48'0 0.0
2018-Feb-11 05:26N 33°53' E 130°48'0 0.0
2018-Feb-11 04:59N 33°53' E 130°48'0 0.0
2018-Feb-11 04:29N 33°53' E 130°48'0 0.0
2018-Feb-11 03:59N 33°53' E 130°48'0 0.0
2018-Feb-11 03:29N 33°53' E 130°48'0 0.0
2018-Feb-11 02:59N 33°53' E 130°48'0 0.0
2018-Feb-11 02:29N 33°53' E 130°48'0 0.0
2018-Feb-11 01:59N 33°53' E 130°48'0 0.0
2018-Feb-11 01:29N 33°53' E 130°48'0 0.0
2018-Feb-11 00:59N 33°53' E 130°48'0 0.0
2018-Feb-11 00:26N 33°53' E 130°48'0 0.0
2018-Feb-10 23:56N 33°53' E 130°48'0 0.0
2018-Feb-10 23:26N 33°53' E 130°48'0 0.0
2018-Feb-10 22:59N 33°53' E 130°48'0 0.0
2018-Feb-10 22:26N 33°53' E 130°48'0 0.0
2018-Feb-10 21:56N 33°53' E 130°48'0 0.0
2018-Feb-10 21:26N 33°53' E 130°48'0 0.0
2018-Feb-10 20:59N 33°53' E 130°48'0 0.0
2018-Feb-10 20:29N 33°53' E 130°48'0 0.0
2018-Feb-10 19:56N 33°53' E 130°48'0 0.0
2018-Feb-10 19:29N 33°53' E 130°48'0 0.0
2018-Feb-10 18:59N 33°53' E 130°48'0 0.0
2018-Feb-10 18:26N 33°53' E 130°48'0 0.0
2018-Feb-10 17:59N 33°53' E 130°48'0 0.0
2018-Feb-10 17:26N 33°53' E 130°48'0 0.0
2018-Feb-10 16:59N 33°53' E 130°48'0 0.0
2018-Feb-10 16:26N 33°53' E 130°48'0 0.0
2018-Feb-10 15:59N 33°53' E 130°48'0 0.0
2018-Feb-10 15:29N 33°53' E 130°48'0 0.0
2018-Feb-10 14:59N 33°53' E 130°48'0 0.0
2018-Feb-10 14:29N 33°53' E 130°48'0 0.0
2018-Feb-10 13:59N 33°53' E 130°48'0 0.0
2018-Feb-10 13:29N 33°53' E 130°48'0 0.0
2018-Feb-10 12:56N 33°53' E 130°48'0 0.0
2018-Feb-10 12:29N 33°53' E 130°48'0 0.0
2018-Feb-10 11:59N 33°53' E 130°48'0 0.0
2018-Feb-10 11:29N 33°53' E 130°48'0 0.0
2018-Feb-10 10:56N 33°53' E 130°48'0 0.0
2018-Feb-10 10:26N 33°53' E 130°48'0 0.0
2018-Feb-10 09:56N 33°53' E 130°48'0 0.0
2018-Feb-10 09:26N 33°53' E 130°48'0 0.0
2018-Feb-10 08:59N 33°53' E 130°48'0 0.0
2018-Feb-10 08:26N 33°53' E 130°48'0 0.0
2018-Feb-10 07:56N 33°53' E 130°48'0 0.0
2018-Feb-10 07:29N 33°53' E 130°48'0 0.0
2018-Feb-10 06:59N 33°53' E 130°48'0 0.0
2018-Feb-10 06:29N 33°53' E 130°48'0 0.0
2018-Feb-10 05:56N 33°53' E 130°48'0 0.0
2018-Feb-10 05:29N 33°53' E 130°48'0 0.0
2018-Feb-10 04:59N 33°53' E 130°48'0 0.0
2018-Feb-10 04:26N 33°53' E 130°48'0 0.0
2018-Feb-10 03:59N 33°53' E 130°48'0 0.0
2018-Feb-10 03:26N 33°53' E 130°48'0 0.0
2018-Feb-10 02:59N 33°53' E 130°48'0 0.0
2018-Feb-10 02:29N 33°53' E 130°48'0 0.0
2018-Feb-10 01:59N 33°53' E 130°48'0 0.0
2018-Feb-10 01:26N 33°53' E 130°48'0 0.0
2018-Feb-10 00:59N 33°53' E 130°48'0 0.0
2018-Feb-10 00:29N 33°53' E 130°48'0 0.0
2018-Feb-09 23:56N 33°53' E 130°48'0 0.0
2018-Feb-09 23:26N 33°53' E 130°48'0 0.0
2018-Feb-09 22:59N 33°53' E 130°48'0 0.0
2018-Feb-09 22:44N 33°53' E 130°48'  
Track history (hours):
 
Tides and Currents Weather Stations Pressure Air Temp Water Temp Dewpoint Dewpoint Depression Visibility Wind Speed Wind Dir Waves Ship Positions

Baltic Leader

Last reported at 2018-Feb-19 13:12 UTC. Time now 2018-Feb-22 01:27 UTC.
Position N 33°01' E 132°09'.

Length 190 m; draft 7.3 m.

Type: Cargo ship. MMSI: 355323000.

Date/timePositionNaut miles runAvg speedWind from/ knotsBaromVisibWave heightAir tempDewpointWater temp
2018-Feb-19 13:12N 33°01' E 132°09'1512.2
2018-Feb-19 11:59N 33°14' E 132°02'510.8
2018-Feb-19 11:30N 33°19' E 131°59'5 9.6
2018-Feb-19 11:00N 33°23' E 131°56'510.2
2018-Feb-19 10:30N 33°27' E 131°53'611.3
2018-Feb-19 10:00N 33°33' E 131°50'611.4
2018-Feb-19 09:30N 33°38' E 131°47'510.8
2018-Feb-19 09:00N 33°43' E 131°44'510.2
2018-Feb-19 08:30N 33°46' E 131°40'611.2
2018-Feb-19 08:00N 33°47' E 131°33'611.3
2018-Feb-19 07:31N 33°48' E 131°26'611.7
2018-Feb-19 07:00N 33°48' E 131°19'2 4.6
2018-Feb-19 06:30N 33°49' E 131°17'2 3.9
2018-Feb-19 06:01N 33°50' E 131°15'611.1
2018-Feb-19 05:31N 33°53' E 131°09'611.4
2018-Feb-19 05:01N 33°56' E 131°04'4 8.6
2018-Feb-19 04:30N 33°58' E 130°59'5 9.1
2018-Feb-19 04:01N 33°55' E 130°56'3 6.9
2018-Feb-19 03:30N 33°56' E 130°52'4 7.7
2018-Feb-19 03:01N 33°54' E 130°48'1 1.5
2018-Feb-19 02:26N 33°53' E 130°48'0 0.0
2018-Feb-19 01:56N 33°53' E 130°48'0 0.0
2018-Feb-19 01:26N 33°53' E 130°48'0 0.0
2018-Feb-19 00:59N 33°53' E 130°48'0 0.0
2018-Feb-19 00:29N 33°53' E 130°48'0 0.0
2018-Feb-18 23:59N 33°53' E 130°48'0 0.0
2018-Feb-18 23:23N 33°53' E 130°48'0 0.0
2018-Feb-18 22:59N 33°53' E 130°48'0 0.0
2018-Feb-18 22:20N 33°53' E 130°48'0 0.0
2018-Feb-18 21:56N 33°53' E 130°48'0 0.0
2018-Feb-18 21:26N 33°53' E 130°48'0 0.0
2018-Feb-18 20:56N 33°53' E 130°48'0 0.0
2018-Feb-18 20:26N 33°53' E 130°48'0 0.0
2018-Feb-18 19:56N 33°53' E 130°48'0 0.0
2018-Feb-18 19:29N 33°53' E 130°48'0 0.0
2018-Feb-18 18:56N 33°53' E 130°48'0 0.0
2018-Feb-18 18:26N 33°53' E 130°48'0 0.0
2018-Feb-18 17:59N 33°53' E 130°48'0 0.0
2018-Feb-18 17:26N 33°53' E 130°48'0 0.0
2018-Feb-18 16:59N 33°53' E 130°48'0 0.0
2018-Feb-18 16:26N 33°53' E 130°48'0 0.0
2018-Feb-18 15:59N 33°53' E 130°48'0 0.0
2018-Feb-18 15:26N 33°53' E 130°48'0 0.0
2018-Feb-18 14:56N 33°53' E 130°48'0 0.0
2018-Feb-18 14:29N 33°53' E 130°48'0 0.0
2018-Feb-18 13:56N 33°53' E 130°48'0 0.0
2018-Feb-18 13:29N 33°53' E 130°48'0 0.0
2018-Feb-18 12:56N 33°53' E 130°48'0 0.0
2018-Feb-18 12:26N 33°53' E 130°48'0 0.0
2018-Feb-18 11:56N 33°53' E 130°48'0 0.0
2018-Feb-18 11:29N 33°53' E 130°48'0 0.0
2018-Feb-18 10:59N 33°53' E 130°48'0 0.0
2018-Feb-18 10:26N 33°53' E 130°48'0 0.0
2018-Feb-18 09:59N 33°53' E 130°48'0 0.0
2018-Feb-18 09:26N 33°53' E 130°48'0 0.0
2018-Feb-18 08:56N 33°53' E 130°48'0 0.0
2018-Feb-18 08:26N 33°53' E 130°48'0 0.0
2018-Feb-18 07:53N 33°53' E 130°48'0 0.0
2018-Feb-18 07:26N 33°53' E 130°48'0 0.0
2018-Feb-18 06:53N 33°53' E 130°48'0 0.0
2018-Feb-18 06:29N 33°53' E 130°48'0 0.0
2018-Feb-18 05:59N 33°53' E 130°48'0 0.0
2018-Feb-18 05:26N 33°53' E 130°48'0 0.0
2018-Feb-18 04:56N 33°53' E 130°48'0 0.0
2018-Feb-18 04:29N 33°53' E 130°48'0 0.0
2018-Feb-18 03:56N 33°53' E 130°48'0 0.0
2018-Feb-18 03:29N 33°53' E 130°48'0 0.0
2018-Feb-18 02:56N 33°53' E 130°48'0 0.0
2018-Feb-18 02:29N 33°53' E 130°48'0 0.0
2018-Feb-18 01:59N 33°53' E 130°48'0 0.0
2018-Feb-18 01:29N 33°53' E 130°48'0 0.0
2018-Feb-18 00:50N 33°53' E 130°48'0 0.0
2018-Feb-18 00:29N 33°53' E 130°48'0 0.0
2018-Feb-17 23:56N 33°53' E 130°48'0 0.0
2018-Feb-17 23:26N 33°53' E 130°48'0 0.0
2018-Feb-17 22:59N 33°53' E 130°48'0 0.0
2018-Feb-17 22:26N 33°53' E 130°48'0 0.0
2018-Feb-17 21:59N 33°53' E 130°48'0 0.0
2018-Feb-17 21:26N 33°53' E 130°48'0 0.0
2018-Feb-17 20:59N 33°53' E 130°48'0 0.0
2018-Feb-17 20:26N 33°53' E 130°48'0 0.0
2018-Feb-17 19:59N 33°53' E 130°48'0 0.0
2018-Feb-17 19:26N 33°53' E 130°48'0 0.0
2018-Feb-17 18:53N 33°53' E 130°48'0 0.0
2018-Feb-17 18:29N 33°53' E 130°48'0 0.0
2018-Feb-17 17:56N 33°53' E 130°48'0 0.0
2018-Feb-17 17:26N 33°53' E 130°48'0 0.0
2018-Feb-17 16:59N 33°53' E 130°48'0 0.0
2018-Feb-17 16:26N 33°53' E 130°48'0 0.0
2018-Feb-17 15:53N 33°53' E 130°48'0 0.0
2018-Feb-17 15:29N 33°53' E 130°48'0 0.0
2018-Feb-17 14:56N 33°53' E 130°48'0 0.0
2018-Feb-17 14:29N 33°53' E 130°48'0 0.0
2018-Feb-17 13:59N 33°53' E 130°48'0 0.0
2018-Feb-17 13:26N 33°53' E 130°48'0 0.0
2018-Feb-17 12:56N 33°53' E 130°48'0 0.0
2018-Feb-17 12:26N 33°53' E 130°48'0 0.0
2018-Feb-17 11:50N 33°53' E 130°48'0 0.0
2018-Feb-17 11:20N 33°53' E 130°48'0 0.0
2018-Feb-17 10:59N 33°53' E 130°48'0 0.0
2018-Feb-17 10:26N 33°53' E 130°48'0 0.0
2018-Feb-17 09:59N 33°53' E 130°48'0 0.0
2018-Feb-17 09:29N 33°53' E 130°48'0 0.0
2018-Feb-17 08:59N 33°53' E 130°48'0 0.0
2018-Feb-17 08:26N 33°53' E 130°48'0 0.0
2018-Feb-17 07:53N 33°53' E 130°48'0 0.0
2018-Feb-17 07:29N 33°53' E 130°48'0 0.0
2018-Feb-17 06:59N 33°53' E 130°48'0 0.0
2018-Feb-17 06:26N 33°53' E 130°48'0 0.0
2018-Feb-17 05:59N 33°53' E 130°48'0 0.0
2018-Feb-17 05:29N 33°53' E 130°48'0 0.0
2018-Feb-17 04:50N 33°53' E 130°48'0 0.0
2018-Feb-17 04:29N 33°53' E 130°48'0 0.0
2018-Feb-17 03:59N 33°53' E 130°48'0 0.0
2018-Feb-17 03:26N 33°53' E 130°48'0 0.0
2018-Feb-17 02:56N 33°53' E 130°48'0 0.0
2018-Feb-17 02:26N 33°53' E 130°48'0 0.0
2018-Feb-17 01:59N 33°53' E 130°48'0 0.0
2018-Feb-17 01:26N 33°53' E 130°48'0 0.0
2018-Feb-17 00:59N 33°53' E 130°48'0 0.0
2018-Feb-17 00:20N 33°53' E 130°48'0 0.0
2018-Feb-16 23:56N 33°53' E 130°48'0 0.0
2018-Feb-16 23:26N 33°53' E 130°48'0 0.0
2018-Feb-16 22:59N 33°53' E 130°48'0 0.0
2018-Feb-16 22:29N 33°53' E 130°48'0 0.0
2018-Feb-16 21:59N 33°53' E 130°48'0 0.0
2018-Feb-16 21:20N 33°53' E 130°48'0 0.0
2018-Feb-16 20:59N 33°53' E 130°48'0 0.0
2018-Feb-16 20:26N 33°53' E 130°48'0 0.0
2018-Feb-16 19:56N 33°53' E 130°48'0 0.0
2018-Feb-16 19:20N 33°53' E 130°48'0 0.0
2018-Feb-16 18:53N 33°53' E 130°48'0 0.0
2018-Feb-16 18:29N 33°53' E 130°48'0 0.0
2018-Feb-16 17:59N 33°53' E 130°48'0 0.0
2018-Feb-16 17:29N 33°53' E 130°48'0 0.0
2018-Feb-16 16:59N 33°53' E 130°48'0 0.0
2018-Feb-16 16:20N 33°53' E 130°48'0 0.0
2018-Feb-16 15:56N 33°53' E 130°48'0 0.0
2018-Feb-16 15:26N 33°53' E 130°48'0 0.0
2018-Feb-16 14:59N 33°53' E 130°48'0 0.0
2018-Feb-16 14:29N 33°53' E 130°48'0 0.0
2018-Feb-16 13:59N 33°53' E 130°48'0 0.0
2018-Feb-16 13:26N 33°53' E 130°48'0 0.0
2018-Feb-16 12:56N 33°53' E 130°48'0 0.0
2018-Feb-16 12:26N 33°53' E 130°48'0 0.0
2018-Feb-16 11:56N 33°53' E 130°48'0 0.0
2018-Feb-16 11:26N 33°53' E 130°48'0 0.0
2018-Feb-16 10:59N 33°53' E 130°48'0 0.0
2018-Feb-16 10:23N 33°53' E 130°48'0 0.0
2018-Feb-16 09:56N 33°53' E 130°48'0 0.0
2018-Feb-16 09:29N 33°53' E 130°48'0 0.0
2018-Feb-16 08:56N 33°53' E 130°48'0 0.0
2018-Feb-16 08:26N 33°53' E 130°48'0 0.0
2018-Feb-16 07:59N 33°53' E 130°48'0 0.0
2018-Feb-16 07:26N 33°53' E 130°48'0 0.0
2018-Feb-16 06:56N 33°53' E 130°48'0 0.0
2018-Feb-16 06:26N 33°53' E 130°48'0 0.0
2018-Feb-16 05:44N 33°53' E 130°48'0 0.0
2018-Feb-16 05:26N 33°53' E 130°48'0 0.0
2018-Feb-16 04:50N 33°53' E 130°48'0 0.0
2018-Feb-16 04:26N 33°53' E 130°48'0 0.0
2018-Feb-16 03:56N 33°53' E 130°48'0 0.0
2018-Feb-16 03:29N 33°53' E 130°48'0 0.0
2018-Feb-16 02:59N 33°53' E 130°48'0 0.0
2018-Feb-16 02:26N 33°53' E 130°48'0 0.0
2018-Feb-16 01:56N 33°53' E 130°48'0 0.0
2018-Feb-16 01:26N 33°53' E 130°48'0 0.0
2018-Feb-16 00:53N 33°53' E 130°48'0 0.0
2018-Feb-16 00:29N 33°53' E 130°48'0 0.0
2018-Feb-15 23:59N 33°53' E 130°48'0 0.0
2018-Feb-15 23:26N 33°53' E 130°48'0 0.0
2018-Feb-15 22:56N 33°53' E 130°48'0 0.0
2018-Feb-15 22:26N 33°53' E 130°48'0 0.0
2018-Feb-15 21:56N 33°53' E 130°48'0 0.0
2018-Feb-15 21:26N 33°53' E 130°48'0 0.0
2018-Feb-15 20:53N 33°53' E 130°48'0 0.0
2018-Feb-15 20:26N 33°53' E 130°48'0 0.0
2018-Feb-15 19:56N 33°53' E 130°48'0 0.0
2018-Feb-15 19:26N 33°53' E 130°48'0 0.0
2018-Feb-15 18:53N 33°53' E 130°48'0 0.0
2018-Feb-15 18:26N 33°53' E 130°48'0 0.0
2018-Feb-15 17:56N 33°53' E 130°48'0 0.0
2018-Feb-15 17:26N 33°53' E 130°48'0 0.0
2018-Feb-15 16:56N 33°53' E 130°48'0 0.0
2018-Feb-15 16:29N 33°53' E 130°48'0 0.0
2018-Feb-15 15:59N 33°53' E 130°48'0 0.0
2018-Feb-15 15:29N 33°53' E 130°48'0 0.0
2018-Feb-15 14:59N 33°53' E 130°48'0 0.0
2018-Feb-15 14:26N 33°53' E 130°48'0 0.0
2018-Feb-15 13:59N 33°53' E 130°48'0 0.0
2018-Feb-15 13:29N 33°53' E 130°48'0 0.0
2018-Feb-15 12:56N 33°53' E 130°48'0 0.0
2018-Feb-15 12:23N 33°53' E 130°48'0 0.0
2018-Feb-15 11:59N 33°53' E 130°48'0 0.0
2018-Feb-15 11:29N 33°53' E 130°48'0 0.0
2018-Feb-15 10:59N 33°53' E 130°48'0 0.0
2018-Feb-15 10:29N 33°53' E 130°48'0 0.0
2018-Feb-15 09:59N 33°53' E 130°48'0 0.0
2018-Feb-15 09:26N 33°53' E 130°48'0 0.0
2018-Feb-15 08:56N 33°53' E 130°48'0 0.0
2018-Feb-15 08:26N 33°53' E 130°48'0 0.0
2018-Feb-15 07:59N 33°53' E 130°48'0 0.0
2018-Feb-15 07:23N 33°53' E 130°48'0 0.0
2018-Feb-15 06:56N 33°53' E 130°48'0 0.0
2018-Feb-15 06:23N 33°53' E 130°48'0 0.0
2018-Feb-15 05:56N 33°53' E 130°48'0 0.0
2018-Feb-15 05:26N 33°53' E 130°48'0 0.0
2018-Feb-15 04:53N 33°53' E 130°48'0 0.0
2018-Feb-15 04:26N 33°53' E 130°48'0 0.0
2018-Feb-15 03:56N 33°53' E 130°48'0 0.0
2018-Feb-15 03:23N 33°53' E 130°48'0 0.0
2018-Feb-15 02:59N 33°53' E 130°48'0 0.0
2018-Feb-15 02:14N 33°53' E 130°48'0 0.0
2018-Feb-15 01:59N 33°53' E 130°48'0 0.0
2018-Feb-15 01:26N 33°53' E 130°48'0 0.0
2018-Feb-15 00:59N 33°53' E 130°48'0 0.0
2018-Feb-15 00:26N 33°53' E 130°48'0 0.0
2018-Feb-14 23:56N 33°53' E 130°48'0 0.0
2018-Feb-14 23:26N 33°53' E 130°48'0 0.0
2018-Feb-14 22:59N 33°53' E 130°48'0 0.0
2018-Feb-14 22:29N 33°53' E 130°48'0 0.0
2018-Feb-14 21:56N 33°53' E 130°48'0 0.0
2018-Feb-14 21:26N 33°53' E 130°48'0 0.0
2018-Feb-14 20:53N 33°53' E 130°48'0 0.0
2018-Feb-14 20:26N 33°53' E 130°48'0 0.0
2018-Feb-14 19:56N 33°53' E 130°48'0 0.0
2018-Feb-14 19:29N 33°53' E 130°48'0 0.0
2018-Feb-14 18:59N 33°53' E 130°48'0 0.0
2018-Feb-14 18:26N 33°53' E 130°48'0 0.0
2018-Feb-14 17:59N 33°53' E 130°48'0 0.0
2018-Feb-14 17:26N 33°53' E 130°48'0 0.0
2018-Feb-14 16:59N 33°53' E 130°48'0 0.0
2018-Feb-14 16:29N 33°53' E 130°48'0 0.0
2018-Feb-14 15:59N 33°53' E 130°48'0 0.0
2018-Feb-14 15:29N 33°53' E 130°48'0 0.0
2018-Feb-14 14:56N 33°53' E 130°48'0 0.0
2018-Feb-14 14:14N 33°53' E 130°48'0 0.0
2018-Feb-14 13:59N 33°53' E 130°48'0 0.0
2018-Feb-14 13:29N 33°53' E 130°48'0 0.0
2018-Feb-14 12:59N 33°53' E 130°48'0 0.0
2018-Feb-14 12:29N 33°53' E 130°48'0 0.0
2018-Feb-14 11:59N 33°53' E 130°48'0 0.0
2018-Feb-14 11:23N 33°53' E 130°48'0 0.0
2018-Feb-14 10:56N 33°53' E 130°48'0 0.0
2018-Feb-14 10:26N 33°53' E 130°48'0 0.0
2018-Feb-14 09:59N 33°53' E 130°48'0 0.0
2018-Feb-14 09:29N 33°53' E 130°48'0 0.0
2018-Feb-14 08:59N 33°53' E 130°48'0 0.0
2018-Feb-14 08:29N 33°53' E 130°48'0 0.0
2018-Feb-14 07:59N 33°53' E 130°48'0 0.0
2018-Feb-14 07:29N 33°53' E 130°48'0 0.0
2018-Feb-14 06:56N 33°53' E 130°48'0 0.0
2018-Feb-14 06:26N 33°53' E 130°48'0 0.0
2018-Feb-14 05:59N 33°53' E 130°48'0 0.0
2018-Feb-14 05:26N 33°53' E 130°48'0 0.0
2018-Feb-14 04:59N 33°53' E 130°48'0 0.0
2018-Feb-14 04:29N 33°53' E 130°48'0 0.0
2018-Feb-14 03:59N 33°53' E 130°48'0 0.0
2018-Feb-14 03:29N 33°53' E 130°48'0 0.0
2018-Feb-14 02:59N 33°53' E 130°48'0 0.0
2018-Feb-14 02:29N 33°53' E 130°48'0 0.0
2018-Feb-14 01:59N 33°53' E 130°48'0 0.0
2018-Feb-14 01:29N 33°53' E 130°48'0 0.0
2018-Feb-14 00:56N 33°53' E 130°48'0 0.0
2018-Feb-14 00:26N 33°53' E 130°48'0 0.0
2018-Feb-13 23:50N 33°53' E 130°48'0 0.0
2018-Feb-13 23:26N 33°53' E 130°48'0 0.0
2018-Feb-13 22:56N 33°53' E 130°48'0 0.0
2018-Feb-13 22:29N 33°53' E 130°48'0 0.0
2018-Feb-13 21:59N 33°53' E 130°48'0 0.0
2018-Feb-13 21:26N 33°53' E 130°48'0 0.0
2018-Feb-13 20:56N 33°53' E 130°48'0 0.0
2018-Feb-13 20:26N 33°53' E 130°48'0 0.0
2018-Feb-13 19:56N 33°53' E 130°48'0 0.0
2018-Feb-13 19:26N 33°53' E 130°48'0 0.0
2018-Feb-13 18:56N 33°53' E 130°48'0 0.0
2018-Feb-13 18:26N 33°53' E 130°48'0 0.0
2018-Feb-13 17:59N 33°53' E 130°48'0 0.0
2018-Feb-13 17:29N 33°53' E 130°48'0 0.0
2018-Feb-13 16:44N 33°53' E 130°48'0 0.0
2018-Feb-13 16:26N 33°53' E 130°48'0 0.0
2018-Feb-13 15:56N 33°53' E 130°48'0 0.0
2018-Feb-13 15:26N 33°53' E 130°48'0 0.0
2018-Feb-13 14:59N 33°53' E 130°48'0 0.0
2018-Feb-13 14:29N 33°53' E 130°48'0 0.0
2018-Feb-13 13:59N 33°53' E 130°48'0 0.0
2018-Feb-13 13:26N 33°53' E 130°48'0 0.0
2018-Feb-13 12:56N 33°53' E 130°48'0 0.0
2018-Feb-13 12:26N 33°53' E 130°48'0 0.0
2018-Feb-13 11:59N 33°53' E 130°48'0 0.0
2018-Feb-13 11:26N 33°53' E 130°48'0 0.0
2018-Feb-13 10:56N 33°53' E 130°48'0 0.0
2018-Feb-13 10:29N 33°53' E 130°48'0 0.0
2018-Feb-13 09:59N 33°53' E 130°48'0 0.0
2018-Feb-13 09:29N 33°53' E 130°48'0 0.0
2018-Feb-13 08:53N 33°53' E 130°48'0 0.0
2018-Feb-13 08:29N 33°53' E 130°48'0 0.0
2018-Feb-13 07:56N 33°53' E 130°48'0 0.0
2018-Feb-13 07:29N 33°53' E 130°48'0 0.0
2018-Feb-13 06:59N 33°53' E 130°48'0 0.0
2018-Feb-13 06:26N 33°53' E 130°48'0 0.0
2018-Feb-13 05:56N 33°53' E 130°48'0 0.0
2018-Feb-13 05:23N 33°53' E 130°48'0 0.0
2018-Feb-13 04:59N 33°53' E 130°48'0 0.0
2018-Feb-13 04:26N 33°53' E 130°48'0 0.0
2018-Feb-13 03:59N 33°53' E 130°48'0 0.0
2018-Feb-13 03:26N 33°53' E 130°48'0 0.0
2018-Feb-13 02:59N 33°53' E 130°48'0 0.0
2018-Feb-13 02:26N 33°53' E 130°48'0 0.0
2018-Feb-13 01:56N 33°53' E 130°48'0 0.0
2018-Feb-13 01:20N 33°53' E 130°48'0 0.0
2018-Feb-13 00:59N 33°53' E 130°48'0 0.0
2018-Feb-13 00:26N 33°53' E 130°48'0 0.0
2018-Feb-12 23:56N 33°53' E 130°48'0 0.0
2018-Feb-12 23:23N 33°53' E 130°48'0 0.0
2018-Feb-12 22:56N 33°53' E 130°48'0 0.0
2018-Feb-12 22:29N 33°53' E 130°48'0 0.0
2018-Feb-12 21:56N 33°53' E 130°48'0 0.0
2018-Feb-12 21:29N 33°53' E 130°48'0 0.0
2018-Feb-12 20:56N 33°53' E 130°48'0 0.0
2018-Feb-12 20:26N 33°53' E 130°48'0 0.0
2018-Feb-12 19:56N 33°53' E 130°48'0 0.0
2018-Feb-12 19:26N 33°53' E 130°48'0 0.0
2018-Feb-12 18:59N 33°53' E 130°48'0 0.0
2018-Feb-12 18:26N 33°53' E 130°48'0 0.0
2018-Feb-12 17:56N 33°53' E 130°48'0 0.0
2018-Feb-12 17:26N 33°53' E 130°48'0 0.0
2018-Feb-12 16:56N 33°53' E 130°48'0 0.0
2018-Feb-12 16:29N 33°53' E 130°48'0 0.0
2018-Feb-12 15:56N 33°53' E 130°48'0 0.0
2018-Feb-12 15:14N 33°53' E 130°48'0 0.0
2018-Feb-12 14:59N 33°53' E 130°48'0 0.0
2018-Feb-12 14:29N 33°53' E 130°48'0 0.0
2018-Feb-12 13:56N 33°53' E 130°48'0 0.0
2018-Feb-12 13:29N 33°53' E 130°48'0 0.0
2018-Feb-12 12:56N 33°53' E 130°48'0 0.0
2018-Feb-12 12:26N 33°53' E 130°48'0 0.0
2018-Feb-12 11:59N 33°53' E 130°48'0 0.0
2018-Feb-12 11:26N 33°53' E 130°48'0 0.0
2018-Feb-12 10:56N 33°53' E 130°48'0 0.0
2018-Feb-12 10:29N 33°53' E 130°48'0 0.0
2018-Feb-12 09:56N 33°53' E 130°48'0 0.0
2018-Feb-12 09:26N 33°53' E 130°48'0 0.0
2018-Feb-12 08:59N 33°53' E 130°48'0 0.0
2018-Feb-12 08:29N 33°53' E 130°48'0 0.0
2018-Feb-12 07:56N 33°53' E 130°48'0 0.0
2018-Feb-12 07:29N 33°53' E 130°48'0 0.0
2018-Feb-12 06:56N 33°53' E 130°48'0 0.0
2018-Feb-12 06:14N 33°53' E 130°48'0 0.0
2018-Feb-12 05:56N 33°53' E 130°48'0 0.0
2018-Feb-12 05:29N 33°53' E 130°48'0 0.0
2018-Feb-12 04:56N 33°53' E 130°48'0 0.0
2018-Feb-12 04:26N 33°53' E 130°48'0 0.0
2018-Feb-12 03:56N 33°53' E 130°48'0 0.0
2018-Feb-12 03:26N 33°53' E 130°48'0 0.0
2018-Feb-12 02:50N 33°53' E 130°48'0 0.0
2018-Feb-12 02:26N 33°53' E 130°48'0 0.0
2018-Feb-12 01:56N 33°53' E 130°48'0 0.0
2018-Feb-12 01:29N 33°53' E 130°48'0 0.0
2018-Feb-12 00:59N 33°53' E 130°48'0 0.0
2018-Feb-12 00:26N 33°53' E 130°48'0 0.0
2018-Feb-11 23:59N 33°53' E 130°48'0 0.0
2018-Feb-11 23:26N 33°53' E 130°48'0 0.0
2018-Feb-11 22:59N 33°53' E 130°48'0 0.0
2018-Feb-11 22:26N 33°53' E 130°48'0 0.0
2018-Feb-11 21:59N 33°53' E 130°48'0 0.0
2018-Feb-11 21:26N 33°53' E 130°48'0 0.0
2018-Feb-11 20:56N 33°53' E 130°48'0 0.0
2018-Feb-11 20:29N 33°53' E 130°48'0 0.0
2018-Feb-11 19:59N 33°53' E 130°48'0 0.0
2018-Feb-11 19:29N 33°53' E 130°48'0 0.0
2018-Feb-11 18:56N 33°53' E 130°48'0 0.0
2018-Feb-11 18:29N 33°53' E 130°48'0 0.0
2018-Feb-11 17:59N 33°53' E 130°48'0 0.0
2018-Feb-11 17:29N 33°53' E 130°48'0 0.0
2018-Feb-11 16:59N 33°53' E 130°48'0 0.0
2018-Feb-11 16:26N 33°53' E 130°48'0 0.0
2018-Feb-11 15:56N 33°53' E 130°48'0 0.0
2018-Feb-11 15:29N 33°53' E 130°48'0 0.0
2018-Feb-11 14:56N 33°53' E 130°48'0 0.0
2018-Feb-11 14:26N 33°53' E 130°48'0 0.0
2018-Feb-11 13:56N 33°53' E 130°48'0 0.0
2018-Feb-11 13:26N 33°53' E 130°48'0 0.0
2018-Feb-11 12:59N 33°53' E 130°48'0 0.0
2018-Feb-11 12:26N 33°53' E 130°48'0 0.0
2018-Feb-11 11:59N 33°53' E 130°48'0 0.0
2018-Feb-11 11:26N 33°53' E 130°48'0 0.0
2018-Feb-11 10:56N 33°53' E 130°48'0 0.0
2018-Feb-11 10:29N 33°53' E 130°48'0 0.0
2018-Feb-11 09:56N 33°53' E 130°48'0 0.0
2018-Feb-11 09:23N 33°53' E 130°48'0 0.0
2018-Feb-11 08:56N 33°53' E 130°48'0 0.0
2018-Feb-11 08:29N 33°53' E 130°48'0 0.0
2018-Feb-11 07:59N 33°53' E 130°48'0 0.0
2018-Feb-11 07:29N 33°53' E 130°48'0 0.0
2018-Feb-11 06:59N 33°53' E 130°48'0 0.0
2018-Feb-11 06:26N 33°53' E 130°48'0 0.0
2018-Feb-11 05:59N 33°53' E 130°48'0 0.0
2018-Feb-11 05:26N 33°53' E 130°48'0 0.0
2018-Feb-11 04:59N 33°53' E 130°48'0 0.0
2018-Feb-11 04:29N 33°53' E 130°48'0 0.0
2018-Feb-11 03:59N 33°53' E 130°48'0 0.0
2018-Feb-11 03:29N 33°53' E 130°48'0 0.0
2018-Feb-11 02:59N 33°53' E 130°48'0 0.0
2018-Feb-11 02:29N 33°53' E 130°48'0 0.0
2018-Feb-11 01:59N 33°53' E 130°48'0 0.0
2018-Feb-11 01:29N 33°53' E 130°48'0 0.0
2018-Feb-11 00:59N 33°53' E 130°48'0 0.0
2018-Feb-11 00:26N 33°53' E 130°48'0 0.0
2018-Feb-10 23:56N 33°53' E 130°48'0 0.0
2018-Feb-10 23:26N 33°53' E 130°48'0 0.0
2018-Feb-10 22:59N 33°53' E 130°48'0 0.0
2018-Feb-10 22:26N 33°53' E 130°48'0 0.0
2018-Feb-10 21:56N 33°53' E 130°48'0 0.0
2018-Feb-10 21:26N 33°53' E 130°48'0 0.0
2018-Feb-10 20:59N 33°53' E 130°48'0 0.0
2018-Feb-10 20:29N 33°53' E 130°48'0 0.0
2018-Feb-10 19:56N 33°53' E 130°48'0 0.0
2018-Feb-10 19:29N 33°53' E 130°48'0 0.0
2018-Feb-10 18:59N 33°53' E 130°48'0 0.0
2018-Feb-10 18:26N 33°53' E 130°48'0 0.0
2018-Feb-10 17:59N 33°53' E 130°48'0 0.0
2018-Feb-10 17:26N 33°53' E 130°48'0 0.0
2018-Feb-10 16:59N 33°53' E 130°48'0 0.0
2018-Feb-10 16:26N 33°53' E 130°48'0 0.0
2018-Feb-10 15:59N 33°53' E 130°48'0 0.0
2018-Feb-10 15:29N 33°53' E 130°48'0 0.0
2018-Feb-10 14:59N 33°53' E 130°48'0 0.0
2018-Feb-10 14:29N 33°53' E 130°48'0 0.0
2018-Feb-10 13:59N 33°53' E 130°48'0 0.0
2018-Feb-10 13:29N 33°53' E 130°48'0 0.0
2018-Feb-10 12:56N 33°53' E 130°48'0 0.0
2018-Feb-10 12:29N 33°53' E 130°48'0 0.0
2018-Feb-10 11:59N 33°53' E 130°48'0 0.0
2018-Feb-10 11:29N 33°53' E 130°48'0 0.0
2018-Feb-10 10:56N 33°53' E 130°48'0 0.0
2018-Feb-10 10:26N 33°53' E 130°48'0 0.0
2018-Feb-10 09:56N 33°53' E 130°48'0 0.0
2018-Feb-10 09:26N 33°53' E 130°48'0 0.0
2018-Feb-10 08:59N 33°53' E 130°48'0 0.0
2018-Feb-10 08:26N 33°53' E 130°48'0 0.0
2018-Feb-10 07:56N 33°53' E 130°48'0 0.0
2018-Feb-10 07:29N 33°53' E 130°48'0 0.0
2018-Feb-10 06:59N 33°53' E 130°48'0 0.0
2018-Feb-10 06:29N 33°53' E 130°48'0 0.0
2018-Feb-10 05:56N 33°53' E 130°48'0 0.0
2018-Feb-10 05:29N 33°53' E 130°48'0 0.0
2018-Feb-10 04:59N 33°53' E 130°48'0 0.0
2018-Feb-10 04:26N 33°53' E 130°48'0 0.0
2018-Feb-10 03:59N 33°53' E 130°48'0 0.0
2018-Feb-10 03:26N 33°53' E 130°48'0 0.0
2018-Feb-10 02:59N 33°53' E 130°48'0 0.0
2018-Feb-10 02:29N 33°53' E 130°48'0 0.0
2018-Feb-10 01:59N 33°53' E 130°48'0 0.0
2018-Feb-10 01:26N 33°53' E 130°48'0 0.0
2018-Feb-10 00:59N 33°53' E 130°48'0 0.0
2018-Feb-10 00:29N 33°53' E 130°48'0 0.0
2018-Feb-09 23:56N 33°53' E 130°48'0 0.0
2018-Feb-09 23:26N 33°53' E 130°48'0 0.0
2018-Feb-09 22:59N 33°53' E 130°48'0 0.0
2018-Feb-09 22:44N 33°53' E 130°48'  

Dump ship's entire track history